Afton, Virginia
Current Conditions -  °F | °C
As of 3:15 AM on Tuesday 27 Jan 2015 (Local Time) from KW13 Reporting Station
Overcast Overcast  
Wind Chill: 22°   Ceiling: 700
Heat Index: 27°   Visibility: 5mi
Dew Point: 26°   Wind: 5mph
Humidity: 94%   Direction: 340°NNW
Pressure: 29.71"   Gusts: NA
Location:  38°N, 78.78°W
Report Text: KW13 270815Z AUTO 34004KT 5SM OVC007 M03/M03 A2971 RMK AO1 T10271035
Loading
Personal Weather Stations






























Interactive Weather Map New forecast layout! Learn more

10-Day Weather Forecast

Advertisements
Track Severe Weather on mobile